createdAt,value
2019-05-20T00:00:56.632Z,81.32
2019-05-20T00:03:23.715Z,81.08
2019-05-20T00:05:51.438Z,81.08
2019-05-20T00:08:18.864Z,81.00
2019-05-20T00:19:22.135Z,81.88
2019-05-20T00:21:50.451Z,81.59
2019-05-20T00:24:17.416Z,81.66
2019-05-20T00:26:44.419Z,81.74
2019-05-20T00:29:11.551Z,81.95
2019-05-20T00:31:38.632Z,81.88
2019-05-20T00:34:05.851Z,81.85
2019-05-20T00:36:34.193Z,81.94
2019-05-20T00:39:20.296Z,81.88
2019-05-20T00:41:49.081Z,81.80
2019-05-20T00:44:20.188Z,81.71
2019-05-20T00:46:47.139Z,81.66
2019-05-20T00:49:14.239Z,81.95
2019-05-20T00:51:41.831Z,82.16
2019-05-20T00:54:09.472Z,82.05
2019-05-20T00:56:37.241Z,82.10
2019-05-20T00:59:05.041Z,82.16
2019-05-20T01:01:32.253Z,82.29
2019-05-20T01:03:59.942Z,82.40
2019-05-20T01:06:27.307Z,82.53
2019-05-20T01:08:55.035Z,82.65
2019-05-20T01:11:24.962Z,82.71
2019-05-20T01:13:52.254Z,82.63
2019-05-20T01:16:19.534Z,82.36
2019-05-20T01:18:47.009Z,82.24
2019-05-20T01:21:14.087Z,82.43
2019-05-20T01:23:43.224Z,82.45
2019-05-20T01:26:10.455Z,82.63
2019-05-20T01:28:38.061Z,82.48
2019-05-20T01:31:05.155Z,82.81
2019-05-20T01:33:32.463Z,82.83
2019-05-20T01:35:59.751Z,82.72
2019-05-20T01:38:27.163Z,82.74
2019-05-20T01:40:54.296Z,82.95
2019-05-20T01:43:21.723Z,82.95
2019-05-20T01:45:49.210Z,82.89
2019-05-20T01:48:16.485Z,82.89
2019-05-20T01:50:43.999Z,82.91
2019-05-20T01:53:11.815Z,83.23
2019-05-20T01:55:39.476Z,83.46
2019-05-20T01:58:07.810Z,82.98
2019-05-20T02:00:35.003Z,82.90
2019-05-20T02:03:02.741Z,83.28
2019-05-20T02:05:30.194Z,83.10
2019-05-20T02:07:58.916Z,83.30
2019-05-20T02:10:26.551Z,83.29
2019-05-20T02:12:53.803Z,83.16
2019-05-20T02:24:19.103Z,83.49
2019-05-20T02:26:46.456Z,83.54
2019-05-20T02:29:13.466Z,83.59
2019-05-20T02:31:40.519Z,84.23
2019-05-20T02:34:08.584Z,84.90
2019-05-20T02:36:35.733Z,85.26
2019-05-20T02:39:05.652Z,85.87
2019-05-20T02:41:33.027Z,86.01
2019-05-20T02:44:00.067Z,86.19
2019-05-20T02:46:27.133Z,86.22
2019-05-20T02:48:54.223Z,86.61
2019-05-20T02:51:24.260Z,85.70
2019-05-20T02:53:51.492Z,85.62
2019-05-20T02:56:18.612Z,84.91
2019-05-20T02:58:46.355Z,84.91
2019-05-20T03:01:14.430Z,85.01
2019-05-20T03:03:41.957Z,84.55
2019-05-20T03:06:09.920Z,84.02
2019-05-20T03:08:36.970Z,83.60
2019-05-20T03:11:04.123Z,83.36
2019-05-20T03:13:31.222Z,83.11
2019-05-20T03:15:58.761Z,83.36
2019-05-20T03:18:26.839Z,83.17
2019-05-20T03:20:54.601Z,83.56
2019-05-20T03:23:21.921Z,83.38
2019-05-20T03:25:49.360Z,83.70
2019-05-20T03:28:16.661Z,83.29
2019-05-20T03:30:43.925Z,83.54
2019-05-20T03:33:11.141Z,84.45
2019-05-20T03:35:38.628Z,82.82
2019-05-20T03:38:06.155Z,83.98
2019-05-20T03:40:33.253Z,84.36
2019-05-20T03:43:00.432Z,84.20
2019-05-20T03:45:27.622Z,84.15
2019-05-20T03:47:55.171Z,84.63
2019-05-20T03:50:22.321Z,84.85
2019-05-20T03:52:49.639Z,84.90
2019-05-20T03:55:17.150Z,85.43
2019-05-20T03:57:44.343Z,85.45
2019-05-20T04:00:12.110Z,85.44
2019-05-20T04:02:39.247Z,85.18
2019-05-20T04:05:06.690Z,84.72
2019-05-20T04:07:33.619Z,84.77
2019-05-20T04:10:00.827Z,85.09
2019-05-20T04:12:28.937Z,85.27
2019-05-20T04:14:56.049Z,84.99
2019-05-20T04:17:23.091Z,85.06
2019-05-20T04:19:49.982Z,85.68
2019-05-20T04:22:17.013Z,85.45
2019-05-20T04:24:44.004Z,84.97
2019-05-20T04:27:11.016Z,85.38
2019-05-20T04:29:38.511Z,85.44
2019-05-20T04:32:05.429Z,85.41
2019-05-20T04:34:32.873Z,85.59
2019-05-20T04:36:59.911Z,85.65
2019-05-20T04:39:27.048Z,85.55
2019-05-20T04:41:54.199Z,84.99
2019-05-20T04:44:22.161Z,84.95
2019-05-20T04:46:49.436Z,84.24
2019-05-20T04:49:16.683Z,84.65
2019-05-20T04:51:43.845Z,85.00
2019-05-20T04:54:11.750Z,84.47
2019-05-20T04:56:38.828Z,84.55
2019-05-20T04:59:06.221Z,84.73
2019-05-20T05:01:33.055Z,84.93
2019-05-20T05:04:00.154Z,84.96
2019-05-20T05:06:28.660Z,85.04
2019-05-20T05:08:56.113Z,86.02
2019-05-20T05:11:24.010Z,85.59
2019-05-20T05:13:52.145Z,85.55
2019-05-20T05:16:19.669Z,85.15
2019-05-20T05:18:46.991Z,84.81
2019-05-20T05:21:14.088Z,85.22
2019-05-20T05:23:41.602Z,84.35
2019-05-20T05:26:09.782Z,84.72
2019-05-20T05:28:36.724Z,85.17
2019-05-20T05:31:04.217Z,85.29
2019-05-20T05:33:31.596Z,84.76
2019-05-20T05:35:58.799Z,83.71
2019-05-20T05:38:26.173Z,83.90
2019-05-20T05:40:53.267Z,83.50
2019-05-20T05:43:20.446Z,83.77
2019-05-20T05:45:47.635Z,84.64
2019-05-20T05:48:14.753Z,84.83
2019-05-20T05:50:41.965Z,84.66
2019-05-20T05:53:09.024Z,84.08
2019-05-20T05:55:36.215Z,84.49
2019-05-20T05:58:03.660Z,83.57
2019-05-20T06:00:30.961Z,84.29
2019-05-20T06:02:58.010Z,84.40
2019-05-20T06:05:25.326Z,84.24
2019-05-20T06:07:52.461Z,82.89
2019-05-20T06:10:21.103Z,79.85
2019-05-20T06:12:50.837Z,79.52
2019-05-20T06:15:18.931Z,79.10
2019-05-20T06:17:46.141Z,77.37
2019-05-20T06:20:15.383Z,73.92
2019-05-20T06:22:42.509Z,72.42
2019-05-20T06:25:13.527Z,71.04
2019-05-20T06:27:40.605Z,72.13
2019-05-20T06:30:10.486Z,72.75
2019-05-20T06:32:37.615Z,72.94
2019-05-20T06:35:07.129Z,69.52
2019-05-20T06:37:41.906Z,69.17
2019-05-20T06:40:09.416Z,69.21
2019-05-20T06:42:37.379Z,69.18
2019-05-20T06:45:07.448Z,71.01
2019-05-20T06:47:34.907Z,71.29
2019-05-20T06:50:05.180Z,70.15
2019-05-20T06:52:35.868Z,69.47
2019-05-20T06:55:02.048Z,68.95
2019-05-20T06:57:29.443Z,67.30
2019-05-20T06:59:56.448Z,67.63
2019-05-20T07:02:23.453Z,66.21
2019-05-20T07:04:50.643Z,68.44
2019-05-20T07:07:20.946Z,66.93
2019-05-20T07:09:46.728Z,66.55
2019-05-20T07:12:14.030Z,62.76
2019-05-20T07:14:41.205Z,69.96
2019-05-20T07:17:08.198Z,63.43
2019-05-20T07:19:35.487Z,60.78
2019-05-20T07:22:02.784Z,66.60
2019-05-20T07:24:30.146Z,62.82
2019-05-20T07:26:57.148Z,61.36
2019-05-20T07:29:24.179Z,61.73
2019-05-20T07:31:51.441Z,60.50
2019-05-20T07:34:21.060Z,56.23
2019-05-20T07:37:01.958Z,60.86
2019-05-20T07:39:19.292Z,58.29
2019-05-20T07:41:46.531Z,56.86
2019-05-20T07:44:15.884Z,60.30
2019-05-20T07:46:43.194Z,62.58
2019-05-20T07:49:10.691Z,56.07
2019-05-20T07:51:39.475Z,56.22
2019-05-20T07:54:07.541Z,54.02
2019-05-20T07:56:40.239Z,59.55
2019-05-20T07:59:11.437Z,61.62
2019-05-20T08:01:38.946Z,60.54
2019-05-20T08:04:06.301Z,60.19
2019-05-20T08:06:34.345Z,61.27
2019-05-20T08:09:01.675Z,58.30
2019-05-20T08:11:29.296Z,62.91
2019-05-20T08:13:57.057Z,61.37
2019-05-20T08:16:24.179Z,63.90
2019-05-20T08:18:51.615Z,64.47
2019-05-20T08:21:18.796Z,63.91
2019-05-20T08:23:49.584Z,64.81
2019-05-20T08:26:15.178Z,64.17
2019-05-20T08:28:42.500Z,63.90
2019-05-20T08:31:09.985Z,63.10
2019-05-20T08:33:37.293Z,62.67
2019-05-20T08:36:04.955Z,60.99
2019-05-20T08:38:32.042Z,63.35
2019-05-20T08:40:59.146Z,63.66
2019-05-20T08:43:26.515Z,59.93
2019-05-20T08:45:53.692Z,56.27
2019-05-20T08:48:20.731Z,58.80
2019-05-20T08:50:47.621Z,60.20
2019-05-20T08:53:14.982Z,57.49
2019-05-20T08:55:41.903Z,57.02
2019-05-20T08:58:09.251Z,55.85
2019-05-20T09:00:36.153Z,57.39
2019-05-20T09:03:03.244Z,52.77
2019-05-20T09:05:30.394Z,58.83
2019-05-20T09:08:02.831Z,57.55
2019-05-20T09:10:26.869Z,56.58
2019-05-20T09:12:53.916Z,56.26
2019-05-20T09:15:21.200Z,54.72
2019-05-20T09:17:48.366Z,57.55
2019-05-20T09:20:15.773Z,58.46
2019-05-20T09:22:42.995Z,59.62
2019-05-20T09:25:10.976Z,59.95
2019-05-20T09:27:38.663Z,59.84
2019-05-20T09:30:07.156Z,56.11
2019-05-20T09:32:34.596Z,59.86
2019-05-20T09:35:06.726Z,59.38
2019-05-20T09:37:33.992Z,51.51
2019-05-20T09:40:01.832Z,56.16
2019-05-20T09:42:28.838Z,56.24
2019-05-20T09:44:56.304Z,58.76
2019-05-20T09:47:23.493Z,54.06
2019-05-20T09:49:50.594Z,56.05
2019-05-20T09:52:17.887Z,55.50
2019-05-20T09:54:45.747Z,56.55
2019-05-20T09:57:13.203Z,56.41
2019-05-20T09:59:43.228Z,56.12
2019-05-20T10:02:09.506Z,56.71
2019-05-20T10:04:36.486Z,57.09
2019-05-20T10:07:04.014Z,57.65
2019-05-20T10:09:31.144Z,59.03
2019-05-20T10:11:58.412Z,58.31
2019-05-20T10:14:25.634Z,57.10
2019-05-20T10:16:52.647Z,57.64
2019-05-20T10:19:19.659Z,57.36
2019-05-20T10:21:47.128Z,56.08
2019-05-20T10:24:14.204Z,58.86
2019-05-20T10:26:41.600Z,55.66
2019-05-20T10:29:08.635Z,55.65
2019-05-20T10:31:35.631Z,56.99
2019-05-20T10:34:03.491Z,52.97
2019-05-20T10:36:30.644Z,58.25
2019-05-20T10:38:59.490Z,58.18
2019-05-20T10:41:29.532Z,56.26
2019-05-20T10:43:56.143Z,57.25
2019-05-20T10:46:23.605Z,57.34
2019-05-20T10:48:51.396Z,52.18
2019-05-20T10:51:18.839Z,55.89
2019-05-20T10:53:46.109Z,54.87
2019-05-20T10:56:13.618Z,55.74
2019-05-20T10:58:41.146Z,54.26
2019-05-20T11:01:08.687Z,56.07
2019-05-20T11:03:35.787Z,55.87
2019-05-20T11:06:03.038Z,53.25
2019-05-20T11:08:30.445Z,50.24
2019-05-20T11:10:57.588Z,54.47
2019-05-20T11:13:25.144Z,53.38
2019-05-20T11:15:52.220Z,51.25
2019-05-20T11:18:19.546Z,54.35
2019-05-20T11:20:46.912Z,51.68
2019-05-20T11:23:13.998Z,51.32
2019-05-20T11:25:41.056Z,53.52
2019-05-20T11:28:11.829Z,54.95
2019-05-20T11:30:37.425Z,53.69
2019-05-20T11:33:04.807Z,50.89
2019-05-20T11:35:32.007Z,52.86
2019-05-20T11:37:59.345Z,52.75
2019-05-20T11:40:26.737Z,55.02
2019-05-20T11:42:53.967Z,53.29
2019-05-20T11:45:21.368Z,51.82
2019-05-20T11:47:48.486Z,50.34
2019-05-20T11:50:16.729Z,53.16
2019-05-20T11:52:43.944Z,52.00
2019-05-20T11:55:11.453Z,53.96
2019-05-20T11:57:38.658Z,53.27
2019-05-20T12:00:10.797Z,51.66
2019-05-20T12:02:37.955Z,52.00
2019-05-20T12:05:07.706Z,53.03
2019-05-20T12:07:34.919Z,53.08
2019-05-20T12:10:06.074Z,54.17
2019-05-20T12:12:33.541Z,51.93
2019-05-20T12:15:02.792Z,51.82
2019-05-20T12:17:30.860Z,53.57
2019-05-20T12:19:58.457Z,53.23
2019-05-20T12:22:25.578Z,53.80
2019-05-20T12:24:53.283Z,53.30
2019-05-20T12:27:20.422Z,51.57
2019-05-20T12:29:47.687Z,51.94
2019-05-20T12:32:15.034Z,53.05
2019-05-20T12:34:42.090Z,53.29
2019-05-20T12:37:09.219Z,52.53
2019-05-20T12:39:36.423Z,53.91
2019-05-20T12:42:03.954Z,54.39
2019-05-20T12:44:31.101Z,54.62
2019-05-20T12:46:58.409Z,54.44
2019-05-20T12:49:25.689Z,54.65
2019-05-20T12:51:52.934Z,55.15
2019-05-20T12:54:20.204Z,55.26
2019-05-20T12:56:47.235Z,55.35
2019-05-20T12:59:14.339Z,56.08
2019-05-20T13:01:41.584Z,55.10
2019-05-20T13:04:08.867Z,55.76
2019-05-20T13:06:36.216Z,56.43
2019-05-20T13:09:05.872Z,56.36
2019-05-20T13:11:32.987Z,56.94
2019-05-20T13:14:00.105Z,56.03
2019-05-20T13:16:27.002Z,57.21
2019-05-20T13:18:56.321Z,56.88
2019-05-20T13:21:23.072Z,56.63
2019-05-20T13:23:50.307Z,55.70
2019-05-20T13:26:17.271Z,55.87
2019-05-20T13:28:44.503Z,56.58
2019-05-20T13:31:11.554Z,56.89
2019-05-20T13:33:38.660Z,56.39
2019-05-20T13:36:05.705Z,55.79
2019-05-20T13:38:32.742Z,55.66
2019-05-20T13:40:59.767Z,55.26
2019-05-20T13:43:27.153Z,55.45
2019-05-20T13:45:54.155Z,56.19
2019-05-20T13:48:21.206Z,55.73
2019-05-20T13:50:48.641Z,55.55
2019-05-20T13:53:15.875Z,55.82
2019-05-20T13:55:43.405Z,56.81
2019-05-20T13:58:10.404Z,56.95
2019-05-20T14:00:37.568Z,55.70
2019-05-20T14:03:04.947Z,55.81
2019-05-20T14:05:32.189Z,56.52
2019-05-20T14:07:59.804Z,56.80
2019-05-20T14:10:27.155Z,56.99
2019-05-20T14:12:54.453Z,56.69
2019-05-20T14:15:21.682Z,56.32
2019-05-20T14:17:49.021Z,57.15
2019-05-20T14:20:16.737Z,56.96
2019-05-20T14:22:43.723Z,55.01
2019-05-20T14:25:13.134Z,56.20
2019-05-20T14:27:40.591Z,55.58
2019-05-20T14:30:08.609Z,55.78
2019-05-20T14:32:35.750Z,55.89
2019-05-20T14:35:04.718Z,54.95
2019-05-20T14:37:31.835Z,56.31
2019-05-20T14:39:59.031Z,56.22
2019-05-20T14:42:26.365Z,54.87
2019-05-20T14:44:53.476Z,54.89
2019-05-20T14:47:20.871Z,55.79
2019-05-20T14:49:47.822Z,55.03
2019-05-20T14:52:14.866Z,54.87
2019-05-20T14:54:41.912Z,54.69
2019-05-20T14:57:09.100Z,55.54
2019-05-20T14:59:36.275Z,53.60
2019-05-20T15:02:03.405Z,53.78
2019-05-20T15:04:30.645Z,55.68
2019-05-20T15:06:58.064Z,53.89
2019-05-20T15:09:25.081Z,53.46
2019-05-20T15:11:52.441Z,54.20
2019-05-20T15:14:19.601Z,55.67
2019-05-20T15:16:46.963Z,55.61
2019-05-20T15:19:13.849Z,54.32
2019-05-20T15:21:40.804Z,54.54
2019-05-20T15:24:07.875Z,53.48
2019-05-20T15:26:35.260Z,54.49
2019-05-20T15:29:04.014Z,55.28
2019-05-20T15:31:31.611Z,54.66
2019-05-20T15:33:58.625Z,54.65
2019-05-20T15:36:25.759Z,54.91
2019-05-20T15:38:53.252Z,54.78
2019-05-20T15:41:20.965Z,54.77
2019-05-20T15:43:48.005Z,55.08
2019-05-20T15:46:15.328Z,55.31
2019-05-20T15:48:42.427Z,54.73
2019-05-20T15:51:09.822Z,54.63
2019-05-20T15:53:36.978Z,54.01
2019-05-20T15:56:04.125Z,55.16
2019-05-20T15:58:30.955Z,55.10
2019-05-20T16:00:58.057Z,54.36
2019-05-20T16:03:25.271Z,54.04
2019-05-20T16:05:52.746Z,54.31
2019-05-20T16:08:20.181Z,53.83
2019-05-20T16:10:47.152Z,54.46
2019-05-20T16:13:14.228Z,53.85
2019-05-20T16:15:41.661Z,54.44
2019-05-20T16:18:08.789Z,54.69
2019-05-20T16:20:36.031Z,54.16
2019-05-20T16:23:03.501Z,54.31
2019-05-20T16:25:30.517Z,53.87
2019-05-20T16:27:57.593Z,53.92
2019-05-20T16:30:24.800Z,54.39
2019-05-20T16:32:51.974Z,54.34
2019-05-20T16:35:19.139Z,54.62
2019-05-20T16:37:46.340Z,54.28
2019-05-20T16:40:14.468Z,54.40
2019-05-20T16:42:41.627Z,54.13
2019-05-20T16:45:11.776Z,55.27
2019-05-20T16:47:39.261Z,55.15
2019-05-20T16:50:08.306Z,54.75
2019-05-20T16:52:36.159Z,54.49
2019-05-20T16:55:04.667Z,55.28
2019-05-20T16:57:32.118Z,55.49
2019-05-20T16:59:59.205Z,55.40
2019-05-20T17:02:26.205Z,55.62
2019-05-20T17:04:53.463Z,55.34
2019-05-20T17:07:20.490Z,55.05
2019-05-20T17:09:47.561Z,54.25
2019-05-20T17:12:14.545Z,55.65
2019-05-20T17:14:41.936Z,55.85
2019-05-20T17:17:08.931Z,55.67
2019-05-20T17:19:36.246Z,54.89
2019-05-20T17:22:04.667Z,55.89
2019-05-20T17:24:31.681Z,56.46
2019-05-20T17:27:00.072Z,56.81
2019-05-20T17:29:27.568Z,56.08
2019-05-20T17:31:54.957Z,55.31
2019-05-20T17:34:22.343Z,54.37
2019-05-20T17:36:49.412Z,54.02
2019-05-20T17:39:16.947Z,54.04
2019-05-20T17:41:44.086Z,54.68
2019-05-20T17:44:11.477Z,55.01
2019-05-20T17:46:38.664Z,55.65
2019-05-20T17:49:06.078Z,55.91
2019-05-20T17:51:33.177Z,56.72
2019-05-20T17:54:00.523Z,56.95
2019-05-20T17:56:27.516Z,57.24
2019-05-20T17:58:54.441Z,57.49
2019-05-20T18:01:21.499Z,57.77
2019-05-20T18:03:48.560Z,58.17
2019-05-20T18:06:15.992Z,58.41
2019-05-20T18:08:45.166Z,58.53
2019-05-20T18:11:12.519Z,58.63
2019-05-20T18:13:39.447Z,58.75
2019-05-20T18:16:06.555Z,59.17
2019-05-20T18:18:33.842Z,59.05
2019-05-20T18:21:01.012Z,59.06
2019-05-20T18:23:28.182Z,58.88
2019-05-20T18:25:55.411Z,58.71
2019-05-20T18:28:22.834Z,58.67
2019-05-20T18:30:50.242Z,58.71
2019-05-20T18:33:17.597Z,59.05
2019-05-20T18:35:44.847Z,58.35
2019-05-20T18:38:11.959Z,58.62
2019-05-20T18:40:39.141Z,58.51
2019-05-20T18:43:06.348Z,58.72
2019-05-20T18:45:33.387Z,58.48
2019-05-20T18:48:00.389Z,58.32
2019-05-20T18:50:27.774Z,58.40
2019-05-20T18:52:54.784Z,58.79
2019-05-20T18:55:21.744Z,58.90
2019-05-20T18:57:48.849Z,59.00
2019-05-20T19:00:16.425Z,59.16
2019-05-20T19:02:43.823Z,59.27
2019-05-20T19:05:11.461Z,59.51
2019-05-20T19:07:38.532Z,59.56
2019-05-20T19:10:06.234Z,59.79
2019-05-20T19:12:33.539Z,59.82
2019-05-20T19:15:00.705Z,60.17
2019-05-20T19:17:28.459Z,60.44
2019-05-20T19:19:55.730Z,60.96
2019-05-20T19:22:22.873Z,61.16
2019-05-20T19:24:50.615Z,61.65
2019-05-20T19:27:17.820Z,61.81
2019-05-20T19:29:44.870Z,61.86
2019-05-20T19:32:14.315Z,61.90
2019-05-20T19:34:41.660Z,61.73
2019-05-20T19:37:08.721Z,61.72
2019-05-20T19:39:35.618Z,61.61
2019-05-20T19:42:03.058Z,62.09
2019-05-20T19:44:30.671Z,62.63
2019-05-20T19:46:57.623Z,62.50
2019-05-20T19:49:24.725Z,62.87
2019-05-20T19:51:51.779Z,63.34
2019-05-20T19:54:19.025Z,63.57
2019-05-20T19:56:45.957Z,63.44
2019-05-20T19:59:13.416Z,63.66
2019-05-20T20:01:40.306Z,63.60
2019-05-20T20:04:07.969Z,63.61
2019-05-20T20:06:35.160Z,63.58
2019-05-20T20:09:04.009Z,63.62
2019-05-20T20:11:31.003Z,63.78
2019-05-20T20:13:58.156Z,64.13
2019-05-20T20:16:25.619Z,64.37
2019-05-20T20:18:52.744Z,64.61
2019-05-20T20:21:20.070Z,64.75
2019-05-20T20:23:46.975Z,65.14
2019-05-20T20:26:13.897Z,64.62
2019-05-20T20:28:41.040Z,64.79
2019-05-20T20:31:10.888Z,64.48
2019-05-20T20:33:37.224Z,64.74
2019-05-20T20:36:04.657Z,64.74
2019-05-20T20:38:31.969Z,64.67
2019-05-20T20:40:58.986Z,64.75
2019-05-20T20:43:26.232Z,64.69
2019-05-20T20:45:53.285Z,64.62
2019-05-20T20:48:20.554Z,64.76
2019-05-20T20:50:47.469Z,64.77
2019-05-20T20:53:14.589Z,64.95
2019-05-20T20:55:41.809Z,64.77
2019-05-20T20:58:08.939Z,65.12
2019-05-20T21:00:35.961Z,65.00
2019-05-20T21:03:03.298Z,65.54
2019-05-20T21:05:30.511Z,65.11
2019-05-20T21:07:57.457Z,65.03
2019-05-20T21:10:24.721Z,65.07
2019-05-20T21:12:52.151Z,65.25
2019-05-20T21:15:19.455Z,65.55
2019-05-20T21:17:46.451Z,65.66
2019-05-20T21:20:13.656Z,65.79
2019-05-20T21:22:40.708Z,66.29
2019-05-20T21:25:08.047Z,66.61
2019-05-20T21:27:35.087Z,66.49
2019-05-20T21:30:07.127Z,66.89
2019-05-20T21:32:33.939Z,66.87
2019-05-20T21:35:00.880Z,67.12
2019-05-20T21:37:28.203Z,67.04
2019-05-20T21:39:55.247Z,66.84
2019-05-20T21:42:22.251Z,66.91
2019-05-20T21:44:49.309Z,66.92
2019-05-20T21:47:16.586Z,66.90
2019-05-20T21:49:43.402Z,66.66
2019-05-20T21:52:10.313Z,66.97
2019-05-20T21:54:37.799Z,67.04
2019-05-20T21:57:04.897Z,67.05
2019-05-20T21:59:31.765Z,67.26
2019-05-20T22:01:58.661Z,67.40
2019-05-20T22:04:27.077Z,66.97
2019-05-20T22:06:54.777Z,67.07
2019-05-20T22:09:22.323Z,67.12
2019-05-20T22:11:49.890Z,67.23
2019-05-20T22:14:17.200Z,67.66
2019-05-20T22:16:44.623Z,67.90
2019-05-20T22:19:15.286Z,68.20
2019-05-20T22:21:47.379Z,68.64
2019-05-20T22:24:19.715Z,68.47
2019-05-20T22:26:47.646Z,68.72
2019-05-20T22:29:15.148Z,68.47
2019-05-20T22:31:42.578Z,68.86
2019-05-20T22:34:10.175Z,68.92
2019-05-20T22:36:37.620Z,68.86
2019-05-20T22:39:06.945Z,68.76
2019-05-20T22:41:34.432Z,68.86
2019-05-20T22:44:02.088Z,68.90
2019-05-20T22:46:29.463Z,69.02
2019-05-20T22:48:56.987Z,69.14
2019-05-20T22:51:24.559Z,69.46
2019-05-20T22:53:52.304Z,69.37
2019-05-20T22:56:19.702Z,69.80
2019-05-20T22:58:47.119Z,69.76
2019-05-20T23:01:15.220Z,69.59
2019-05-20T23:03:55.665Z,69.39
2019-05-20T23:06:14.007Z,69.50
2019-05-20T23:08:41.549Z,69.56
2019-05-20T23:11:09.110Z,69.65
2019-05-20T23:13:36.596Z,69.93
2019-05-20T23:16:04.106Z,69.56
2019-05-20T23:18:31.647Z,69.42
2019-05-20T23:20:59.273Z,70.27
2019-05-20T23:23:26.660Z,70.64
2019-05-20T23:25:54.243Z,70.78
2019-05-20T23:28:21.509Z,71.39
2019-05-20T23:30:48.915Z,70.68
2019-05-20T23:33:16.440Z,71.12
2019-05-20T23:35:43.827Z,71.07
2019-05-20T23:38:11.579Z,70.63
2019-05-20T23:40:38.986Z,70.82
2019-05-20T23:43:06.606Z,71.28
2019-05-20T23:45:34.248Z,71.59
2019-05-20T23:48:01.844Z,71.10
2019-05-20T23:50:29.802Z,71.07
2019-05-20T23:52:57.399Z,70.90
2019-05-20T23:55:24.898Z,70.78
2019-05-20T23:57:52.424Z,70.77
